< < Back
Terminal Aerodrome Forecast


Current Version              Previous Versions:   1  2  3  4  5  6  7  8  9  

Terminal Aerodrome Forecast

845
FTUS42 KILM 221100
TAFFLO
TAF
KFLO 221131Z 2212/2312 33006KT P6SM SKC
     FM221300 33011G19KT P6SM SKC
     FM222300 34006KT P6SM SKC=



Latest METAR

561
SAUS70 KWBC 231556
MTRFLO
METAR KFLO 231553Z VRB05KT 10SM CLR 17/06 A3006 RMK AO2 SLP177
T01670056


USA.gov is the U.S. government's official web portal to all federal, state and local government web resources and services.